Time;durP1;ratioP1;P1;durP2;ratioP2;P2;SDS_P1;SDS_P2;PMS_P1;PMS_P2;Temp;Humidity;BMP_temperature;BMP_pressure;BME280_temperature;BME280_humidity;BME280_pressure;Samples;Min_cycle;Max_cycle;Signal;HPM_P1;HPM_P2
2022/11/25 00:00:25;;;;;;;8.48;2.20;;;7.10;99.90;;;;;;5140166;27;20470;-71
2022/11/25 00:02:51;;;;;;;10.68;2.38;;;7.10;99.90;;;;;;5139919;27;20043;-71
2022/11/25 00:05:16;;;;;;;8.05;2.83;;;7.50;99.90;;;;;;5140231;27;20046;-71
2022/11/25 00:07:42;;;;;;;7.55;2.53;;;7.30;99.90;;;;;;5138957;27;20452;-71
2022/11/25 00:10:08;;;;;;;7.85;2.15;;;7.50;99.90;;;;;;5158277;27;20534;-71
2022/11/25 00:12:34;;;;;;;6.82;2.10;;;7.20;99.90;;;;;;5157983;27;20042;-70
2022/11/25 00:15:00;;;;;;;8.50;1.85;;;8.20;99.90;;;;;;5158427;27;20043;-71
2022/11/25 00:17:26;;;;;;;7.50;2.13;;;7.20;99.90;;;;;;5157926;27;20130;-71
2022/11/25 00:19:51;;;;;;;10.52;2.60;;;7.20;99.90;;;;;;5139758;27;20061;-71
2022/11/25 00:22:17;;;;;;;6.97;2.25;;;7.40;99.90;;;;;;5158237;27;20042;-70
2022/11/25 00:24:43;;;;;;;6.03;2.15;;;7.50;99.90;;;;;;5157742;27;20362;-70
2022/11/25 00:27:08;;;;;;;9.38;2.60;;;7.40;99.90;;;;;;5157360;27;20123;-71
2022/11/25 00:29:34;;;;;;;9.48;2.63;;;7.50;99.90;;;;;;5139210;27;20047;-71
2022/11/25 00:32:00;;;;;;;7.85;2.25;;;7.40;99.90;;;;;;5139250;27;20049;-71
2022/11/25 00:34:26;;;;;;;11.55;2.60;;;7.40;99.90;;;;;;5157863;27;20050;-71
2022/11/25 00:36:52;;;;;;;10.43;2.42;;;7.40;99.90;;;;;;5139242;27;20041;-71
2022/11/25 00:39:18;;;;;;;12.25;2.53;;;7.60;99.90;;;;;;5157245;27;20043;-70
2022/11/25 00:44:36;;;;;;;10.90;2.35;;;7.20;99.90;;;;;;5139609;27;20047;-70
2022/11/25 00:47:24;;;;;;;11.23;2.90;;;7.20;99.90;;;;;;5138853;27;20471;-71
2022/11/25 00:49:52;;;;;;;5.60;1.63;;;7.20;99.90;;;;;;5158001;27;20389;-71
2022/11/25 00:52:20;;;;;;;10.38;2.20;;;7.40;99.90;;;;;;5138629;27;20089;-71
2022/11/25 00:54:48;;;;;;;10.18;2.40;;;8.00;99.90;;;;;;5138761;27;20050;-70
2022/11/25 00:57:16;;;;;;;11.57;2.75;;;8.00;99.90;;;;;;5138895;27;20055;-71
2022/11/25 00:59:41;;;;;;;9.68;2.22;;;7.90;99.90;;;;;;5139152;27;20083;-70
2022/11/25 01:02:09;;;;;;;10.48;2.13;;;7.30;99.90;;;;;;5121668;27;20050;-70
2022/11/25 01:04:35;;;;;;;5.72;2.35;;;7.40;99.90;;;;;;5139006;27;20050;-71
2022/11/25 01:07:01;;;;;;;10.07;2.20;;;7.30;99.90;;;;;;5138683;27;20077;-70
2022/11/25 01:09:27;;;;;;;6.05;2.10;;;7.80;99.90;;;;;;5138534;27;20055;-71
2022/11/25 01:11:53;;;;;;;9.18;2.10;;;7.50;99.90;;;;;;5138533;27;20054;-71
2022/11/25 01:14:20;;;;;;;10.35;2.40;;;7.40;99.90;;;;;;5104827;27;20051;-70
2022/11/25 01:16:47;;;;;;;8.43;2.25;;;7.80;99.90;;;;;;5156733;27;20050;-70
2022/11/25 01:19:13;;;;;;;8.23;1.92;;;7.60;99.90;;;;;;5138727;27;20398;-70
2022/11/25 01:21:39;;;;;;;9.13;2.40;;;7.60;99.90;;;;;;5138412;27;20390;-70
2022/11/25 01:24:05;;;;;;;10.70;2.55;;;7.60;99.90;;;;;;5156781;27;20046;-70
2022/11/25 01:26:32;;;;;;;10.10;2.08;;;7.30;99.90;;;;;;5156751;27;20474;-70
2022/11/25 01:29:04;;;;;;;6.25;2.15;;;7.40;99.90;;;;;;5138114;27;20137;-70
2022/11/25 01:31:33;;;;;;;11.57;2.25;;;7.50;99.90;;;;;;5139226;27;20359;-70
2022/11/25 01:34:07;;;;;;;10.30;1.92;;;7.40;99.90;;;;;;5156410;27;20046;-71
2022/11/25 01:36:33;;;;;;;7.40;1.75;;;7.70;99.90;;;;;;5138357;27;20129;-70
2022/11/25 01:38:59;;;;;;;9.20;2.28;;;8.10;99.90;;;;;;5155810;27;20058;-71
2022/11/25 01:41:28;;;;;;;10.13;2.10;;;8.10;99.90;;;;;;5121140;27;20043;-71
2022/11/25 01:44:06;;;;;;;8.02;2.00;;;7.30;99.90;;;;;;5137751;27;20042;-71
2022/11/25 01:46:43;;;;;;;10.50;1.75;;;7.60;99.90;;;;;;5138209;27;20142;-71
2022/11/25 01:49:17;;;;;;;8.18;1.95;;;7.50;99.90;;;;;;5135730;27;20051;-71
2022/11/25 01:52:03;;;;;;;8.23;1.90;;;7.80;99.90;;;;;;5117869;27;20047;-72
2022/11/25 01:54:33;;;;;;;7.07;2.08;;;7.50;99.90;;;;;;5114027;28;20439;-71
2022/11/25 01:57:13;;;;;;;7.43;1.92;;;7.50;99.90;;;;;;5096661;28;20047;-71
2022/11/25 01:59:45;;;;;;;7.68;2.22;;;7.30;99.90;;;;;;5113807;28;20399;-71
2022/11/25 02:02:11;;;;;;;8.00;2.08;;;7.30;99.90;;;;;;5114692;28;20093;-71
2022/11/25 02:04:39;;;;;;;8.48;2.00;;;7.40;99.90;;;;;;5113168;28;20126;-70
2022/11/25 02:07:11;;;;;;;9.48;2.10;;;7.50;99.90;;;;;;5113529;28;20079;-71
2022/11/25 02:09:40;;;;;;;7.50;1.52;;;8.00;99.90;;;;;;5113968;28;20489;-71
2022/11/25 02:12:06;;;;;;;11.65;2.40;;;7.60;99.90;;;;;;5096722;28;20092;-71
2022/11/25 02:14:32;;;;;;;10.95;1.88;;;7.50;99.90;;;;;;5114554;28;20475;-70
2022/11/25 02:17:00;;;;;;;10.75;2.17;;;7.20;99.90;;;;;;5080036;27;20035;-71
2022/11/25 02:20:00;;;;;;;10.32;1.73;;;7.70;99.90;;;;;;5114183;28;20083;-70
2022/11/25 02:22:38;;;;;;;8.63;1.98;;;7.40;99.90;;;;;;5108186;28;20101;-70
2022/11/25 02:25:25;;;;;;;10.93;2.42;;;7.50;99.90;;;;;;5114556;28;20441;-69
2022/11/25 02:27:56;;;;;;;10.25;1.98;;;7.30;99.90;;;;;;5114500;27;20050;-71
2022/11/25 02:30:22;;;;;;;9.18;2.38;;;7.70;99.90;;;;;;5114546;28;20108;-70
2022/11/25 02:32:48;;;;;;;9.63;1.85;;;7.50;99.90;;;;;;5114700;28;20471;-71
2022/11/25 02:35:30;;;;;;;12.07;2.30;;;7.40;99.90;;;;;;5096271;28;20043;-71
2022/11/25 02:38:02;;;;;;;9.23;1.95;;;7.30;99.90;;;;;;5112904;28;20093;-71
2022/11/25 02:40:28;;;;;;;7.10;1.80;;;8.10;99.90;;;;;;5113781;28;20413;-70
2022/11/25 02:42:57;;;;;;;8.23;2.40;;;7.70;99.90;;;;;;5096096;28;20043;-71
2022/11/25 02:45:34;;;;;;;10.40;2.50;;;8.40;99.90;;;;;;5114218;28;20050;-71
2022/11/25 02:48:00;;;;;;;9.88;1.83;;;7.40;99.90;;;;;;5113050;28;20042;-70
2022/11/25 02:50:25;;;;;;;8.52;1.95;;;7.60;99.90;;;;;;5096461;28;20134;-69
2022/11/25 02:52:51;;;;;;;8.68;2.30;;;7.90;99.90;;;;;;5114695;28;20089;-71
2022/11/25 02:55:17;;;;;;;6.45;2.63;;;7.80;99.90;;;;;;5126300;28;20134;-71
2022/11/25 02:57:42;;;;;;;7.00;2.05;;;7.40;99.90;;;;;;5099561;28;20050;-71
2022/11/25 03:00:08;;;;;;;10.65;2.17;;;7.40;99.90;;;;;;5116449;28;20164;-70
2022/11/25 03:02:34;;;;;;;10.30;2.30;;;7.50;99.90;;;;;;5134802;27;20079;-72
2022/11/25 03:05:00;;;;;;;7.40;2.17;;;7.40;99.90;;;;;;5134529;28;20528;-71
2022/11/25 03:07:25;;;;;;;6.60;2.33;;;7.60;99.90;;;;;;5133732;27;20126;-70
2022/11/25 03:09:51;;;;;;;10.35;2.25;;;7.50;99.90;;;;;;5115918;28;20125;-70
2022/11/25 03:12:20;;;;;;;10.55;2.17;;;7.80;99.90;;;;;;5116110;27;20047;-72
2022/11/25 03:14:46;;;;;;;10.88;2.50;;;7.60;99.90;;;;;;5134431;28;20043;-70
2022/11/25 03:17:13;;;;;;;13.38;2.50;;;7.70;99.90;;;;;;5101516;27;20483;-69
2022/11/25 03:19:38;;;;;;;8.43;2.50;;;8.00;99.90;;;;;;5120175;27;20043;-70
2022/11/25 03:22:04;;;;;;;9.30;2.63;;;7.50;99.90;;;;;;5103363;27;20126;-70
2022/11/25 03:24:31;;;;;;;11.20;2.85;;;7.50;99.90;;;;;;5103477;27;20035;-70
2022/11/25 03:26:57;;;;;;;9.95;2.30;;;7.70;99.90;;;;;;5138017;27;20495;-70
2022/11/25 03:29:23;;;;;;;12.95;2.60;;;7.50;99.90;;;;;;5119831;27;20051;-70
2022/11/25 03:31:48;;;;;;;8.52;2.60;;;7.50;99.90;;;;;;5137997;27;20058;-70
2022/11/25 03:34:14;;;;;;;12.93;2.63;;;7.80;99.90;;;;;;5138318;27;20123;-70
2022/11/25 03:36:40;;;;;;;8.48;2.60;;;7.50;99.90;;;;;;5120061;27;20047;-71
2022/11/25 03:39:06;;;;;;;10.30;2.13;;;7.70;99.90;;;;;;5137605;27;20420;-70
2022/11/25 03:41:31;;;;;;;9.68;2.30;;;7.70;99.90;;;;;;5138186;27;20047;-70
2022/11/25 03:43:57;;;;;;;15.07;2.67;;;7.50;99.90;;;;;;5103215;27;20127;-70
2022/11/25 03:46:23;;;;;;;13.60;2.85;;;7.30;99.90;;;;;;5120267;27;20075;-71
2022/11/25 03:48:48;;;;;;;13.05;2.28;;;7.30;99.90;;;;;;5137951;27;20391;-70
2022/11/25 03:51:14;;;;;;;12.93;2.97;;;7.30;99.90;;;;;;5085863;27;20051;-71
2022/11/25 03:53:40;;;;;;;8.75;2.63;;;7.50;99.90;;;;;;5119617;27;20047;-70
2022/11/25 03:56:06;;;;;;;13.07;2.67;;;7.60;99.90;;;;;;5085595;27;20094;-70
2022/11/25 03:58:32;;;;;;;9.13;2.75;;;7.30;99.90;;;;;;5137919;27;20054;-70
2022/11/25 04:01:02;;;;;;;11.80;3.17;;;8.10;99.90;;;;;;5102724;27;20047;-71
2022/11/25 04:03:28;;;;;;;10.35;3.10;;;7.70;99.90;;;;;;5119850;27;20081;-71
2022/11/25 04:05:54;;;;;;;9.05;2.70;;;7.60;99.90;;;;;;5119484;27;20070;-70
2022/11/25 04:08:20;;;;;;;18.50;3.60;;;7.20;99.90;;;;;;5118762;27;20074;-70
2022/11/25 04:10:48;;;;;;;10.43;2.85;;;7.40;99.90;;;;;;5119116;27;20046;-71
2022/11/25 04:13:14;;;;;;;15.10;3.22;;;7.60;99.90;;;;;;5119326;27;20054;-70
2022/11/25 04:15:46;;;;;;;11.13;3.20;;;7.80;99.90;;;;;;5137474;27;20035;-70
2022/11/25 04:18:13;;;;;;;12.38;3.33;;;7.40;99.90;;;;;;5119271;27;20046;-70
2022/11/25 04:20:39;;;;;;;9.50;3.08;;;7.80;99.90;;;;;;5137142;27;20043;-70
2022/11/25 04:23:05;;;;;;;7.88;3.38;;;7.50;99.90;;;;;;5102534;27;20054;-70
2022/11/25 04:25:32;;;;;;;8.35;3.35;;;7.70;99.90;;;;;;5137563;27;20039;-70
2022/11/25 04:27:57;;;;;;;12.50;2.85;;;8.10;99.90;;;;;;5118722;27;20082;-70
2022/11/25 04:30:23;;;;;;;9.18;2.63;;;7.70;99.90;;;;;;5119185;27;20047;-70
2022/11/25 04:32:49;;;;;;;9.63;3.03;;;7.40;99.90;;;;;;5136856;27;20047;-71
2022/11/25 04:35:14;;;;;;;10.73;3.17;;;7.80;99.90;;;;;;5137180;27;20130;-70
2022/11/25 04:37:40;;;;;;;9.98;3.45;;;7.80;99.90;;;;;;5136517;27;20039;-70
2022/11/25 04:40:06;;;;;;;11.27;3.25;;;7.30;99.90;;;;;;5085393;27;20052;-70
2022/11/25 04:42:33;;;;;;;9.20;2.90;;;7.40;99.90;;;;;;5137000;27;20151;-70
2022/11/25 04:45:00;;;;;;;10.15;3.05;;;7.70;99.90;;;;;;5118801;27;20058;-70
2022/11/25 04:47:27;;;;;;;8.63;2.97;;;7.50;99.90;;;;;;5118729;27;20043;-70
2022/11/25 04:49:52;;;;;;;12.80;2.90;;;7.50;99.90;;;;;;5118474;27;20047;-70
2022/11/25 04:52:18;;;;;;;10.85;2.95;;;7.60;99.90;;;;;;5101215;27;20088;-70
2022/11/25 04:54:44;;;;;;;8.85;2.92;;;7.80;99.90;;;;;;5136850;27;20506;-70
2022/11/25 04:57:13;;;;;;;8.80;3.03;;;7.50;99.90;;;;;;5136905;27;20062;-70
2022/11/25 04:59:40;;;;;;;9.10;3.20;;;7.70;99.90;;;;;;5136665;27;20039;-70
2022/11/25 05:02:19;;;;;;;10.98;3.28;;;7.50;99.90;;;;;;5118650;27;20047;-70
2022/11/25 05:04:46;;;;;;;10.70;3.10;;;7.50;99.90;;;;;;5136836;27;20050;-71
2022/11/25 05:07:13;;;;;;;12.45;3.45;;;8.70;99.90;;;;;;5118943;27;20054;-70
2022/11/25 05:09:40;;;;;;;9.98;3.17;;;7.60;99.90;;;;;;5135979;27;20047;-70
2022/11/25 05:12:07;;;;;;;13.93;3.20;;;7.90;99.90;;;;;;5136390;27;20039;-70
2022/11/25 05:14:34;;;;;;;8.45;3.22;;;7.80;99.90;;;;;;5101228;27;20512;-70
2022/11/25 05:17:04;;;;;;;15.75;4.32;;;7.40;99.90;;;;;;5118196;27;20051;-70
2022/11/25 05:19:29;;;;;;;12.93;3.63;;;7.60;99.90;;;;;;5101653;27;20047;-70
2022/11/25 05:21:55;;;;;;;10.55;3.30;;;7.90;99.90;;;;;;5136280;27;20047;-70
2022/11/25 05:24:22;;;;;;;12.02;3.45;;;7.50;99.90;;;;;;5136304;27;20072;-70
2022/11/25 05:26:48;;;;;;;10.95;3.03;;;8.20;99.90;;;;;;5136550;27;20464;-70
2022/11/25 05:29:13;;;;;;;7.97;3.28;;;7.60;99.90;;;;;;5118070;27;20084;-70
2022/11/25 05:31:39;;;;;;;12.82;3.10;;;8.20;99.90;;;;;;5117863;27;20123;-70
2022/11/25 05:34:04;;;;;;;10.85;3.30;;;8.10;99.90;;;;;;5117892;27;20046;-70
2022/11/25 05:36:30;;;;;;;15.15;3.50;;;8.30;99.90;;;;;;5100821;27;20039;-70
2022/11/25 05:38:57;;;;;;;15.43;3.38;;;8.00;99.90;;;;;;5116356;27;20043;-70
2022/11/25 05:41:23;;;;;;;13.48;3.38;;;7.70;99.90;;;;;;5100816;27;20058;-70
2022/11/25 05:43:49;;;;;;;12.45;3.08;;;7.70;99.90;;;;;;5135825;27;20046;-70
2022/11/25 05:46:16;;;;;;;8.50;3.30;;;7.50;99.90;;;;;;5117306;27;20043;-69
2022/11/25 05:48:41;;;;;;;10.43;3.33;;;7.60;99.90;;;;;;5117622;27;20082;-70
2022/11/25 05:51:08;;;;;;;11.50;2.97;;;7.80;99.90;;;;;;5135667;27;20093;-70
2022/11/25 05:53:34;;;;;;;12.48;3.53;;;7.50;99.90;;;;;;5100604;27;20043;-70
2022/11/25 05:56:04;;;;;;;8.75;3.38;;;7.50;99.90;;;;;;5135150;27;20107;-70
2022/11/25 05:58:31;;;;;;;8.68;3.10;;;7.50;99.90;;;;;;5117317;27;20035;-70
2022/11/25 06:00:57;;;;;;;9.80;2.90;;;8.20;99.90;;;;;;5100573;27;20050;-70
2022/11/25 06:03:27;;;;;;;9.40;3.38;;;7.70;99.90;;;;;;5135537;27;20058;-70
2022/11/25 06:05:58;;;;;;;13.20;3.33;;;7.40;99.90;;;;;;5117055;27;20062;-70
2022/11/25 06:08:24;;;;;;;10.43;3.38;;;7.60;99.90;;;;;;5116714;27;20062;-70
2022/11/25 06:10:50;;;;;;;7.53;3.42;;;7.40;99.90;;;;;;5120937;27;20091;-70
2022/11/25 06:13:16;;;;;;;12.13;3.63;;;8.10;99.90;;;;;;5103489;27;20051;-70
2022/11/25 06:15:44;;;;;;;10.60;4.00;;;7.80;99.90;;;;;;5120687;27;20042;-70
2022/11/25 06:18:11;;;;;;;12.82;3.53;;;7.60;99.90;;;;;;5137915;27;20035;-70
2022/11/25 06:20:37;;;;;;;12.00;3.97;;;8.20;99.90;;;;;;5137416;27;20042;-70
2022/11/25 06:23:03;;;;;;;9.18;3.38;;;7.50;99.90;;;;;;5120452;27;20046;-70
2022/11/25 06:25:29;;;;;;;15.30;4.25;;;8.00;99.90;;;;;;5137045;27;20371;-70
2022/11/25 06:27:55;;;;;;;11.82;3.75;;;7.60;99.90;;;;;;5137099;27;20088;-70
2022/11/25 06:30:21;;;;;;;9.55;3.50;;;7.60;99.90;;;;;;5155407;27;20046;-70
2022/11/25 06:32:47;;;;;;;11.50;3.50;;;7.70;99.90;;;;;;5120218;27;20054;-70
2022/11/25 06:35:13;;;;;;;10.77;4.18;;;8.10;99.90;;;;;;5137184;27;20505;-70
2022/11/25 06:37:39;;;;;;;9.45;3.55;;;7.60;99.90;;;;;;5119371;27;20129;-70
2022/11/25 06:40:06;;;;;;;13.93;4.00;;;7.70;99.90;;;;;;5119827;27;20145;-70
2022/11/25 06:42:32;;;;;;;9.38;3.75;;;7.60;99.90;;;;;;5155573;27;20387;-70
2022/11/25 06:44:58;;;;;;;13.15;3.85;;;8.00;99.90;;;;;;5154912;27;20555;-70
2022/11/25 06:47:24;;;;;;;10.23;3.80;;;8.00;99.90;;;;;;5155356;27;20046;-70
2022/11/25 06:49:50;;;;;;;8.00;3.70;;;7.70;99.90;;;;;;5136799;27;20050;-70
2022/11/25 06:52:16;;;;;;;11.27;3.97;;;7.90;99.90;;;;;;5137942;27;20374;-70
2022/11/25 06:54:42;;;;;;;11.32;4.18;;;7.80;99.90;;;;;;5154618;27;20054;-71
2022/11/25 06:57:09;;;;;;;10.95;4.57;;;8.00;99.90;;;;;;5137112;27;20058;-70
2022/11/25 06:59:35;;;;;;;10.40;3.97;;;8.20;99.90;;;;;;5119612;27;20057;-70
2022/11/25 07:02:01;;;;;;;12.18;4.75;;;7.90;99.90;;;;;;5137045;27;20043;-71
2022/11/25 07:04:27;;;;;;;14.10;4.95;;;7.70;99.90;;;;;;5119739;27;20045;-71
2022/11/25 07:06:53;;;;;;;16.90;4.68;;;8.00;99.90;;;;;;5120258;27;20047;-70
2022/11/25 07:09:19;;;;;;;10.63;4.30;;;8.60;99.90;;;;;;5154443;27;20110;-71
2022/11/25 07:11:45;;;;;;;11.43;4.68;;;8.10;99.90;;;;;;5136844;27;20058;-70
2022/11/25 07:14:12;;;;;;;12.05;4.57;;;8.10;99.90;;;;;;5155027;27;20047;-71
2022/11/25 07:16:40;;;;;;;9.23;4.32;;;7.90;99.90;;;;;;5119706;27;20038;-71
2022/11/25 07:19:06;;;;;;;11.82;4.63;;;7.80;99.90;;;;;;5136227;27;20442;-70
2022/11/25 07:21:33;;;;;;;10.10;4.80;;;7.90;99.90;;;;;;5136997;27;20093;-71
2022/11/25 07:24:02;;;;;;;12.77;4.50;;;8.10;99.90;;;;;;5119634;27;20050;-71
2022/11/25 07:26:30;;;;;;;13.45;4.43;;;8.10;99.90;;;;;;5154870;27;20050;-70
2022/11/25 07:29:02;;;;;;;12.65;4.18;;;8.40;99.90;;;;;;5155022;27;20439;-70
2022/11/25 07:31:30;;;;;;;12.45;4.47;;;7.90;99.90;;;;;;5136829;27;20055;-70
2022/11/25 07:34:00;;;;;;;10.15;3.95;;;8.10;99.90;;;;;;5136672;27;20478;-70
2022/11/25 07:36:26;;;;;;;13.18;4.70;;;8.20;99.90;;;;;;5136332;27;20035;-70
2022/11/25 07:38:52;;;;;;;8.85;3.60;;;8.20;99.90;;;;;;5119004;27;20396;-70
2022/11/25 07:41:20;;;;;;;10.48;4.40;;;8.70;99.90;;;;;;5136198;27;20163;-70
2022/11/25 07:43:49;;;;;;;13.60;4.28;;;8.00;99.90;;;;;;5136721;27;20117;-70
2022/11/25 07:46:22;;;;;;;10.02;3.67;;;7.90;99.90;;;;;;5118836;27;20047;-70
2022/11/25 07:48:48;;;;;;;11.60;3.88;;;8.00;99.90;;;;;;5119491;27;20494;-70
2022/11/25 07:51:21;;;;;;;8.77;3.70;;;8.20;99.90;;;;;;5154440;27;20049;-71
2022/11/25 07:53:49;;;;;;;9.13;3.47;;;8.00;99.90;;;;;;5136458;27;20047;-70
2022/11/25 07:56:16;;;;;;;8.35;3.30;;;8.50;99.90;;;;;;5135857;27;20059;-69
2022/11/25 07:58:42;;;;;;;8.77;3.65;;;8.30;99.90;;;;;;5136133;27;20130;-70
2022/11/25 08:01:10;;;;;;;8.13;3.03;;;8.10;99.90;;;;;;5154182;27;20042;-70
2022/11/25 08:03:38;;;;;;;12.18;3.65;;;8.30;99.90;;;;;;5122022;27;20086;-70
2022/11/25 08:06:12;;;;;;;8.25;2.78;;;8.50;99.90;;;;;;5122828;27;20095;-70
2022/11/25 08:08:39;;;;;;;10.18;3.20;;;8.10;99.90;;;;;;5157890;27;20042;-70
2022/11/25 08:11:09;;;;;;;10.35;3.55;;;8.10;99.90;;;;;;5139758;27;20050;-70
2022/11/25 08:13:35;;;;;;;8.52;2.95;;;8.10;99.90;;;;;;5123275;27;20106;-70
2022/11/25 08:16:01;;;;;;;10.02;3.85;;;8.10;99.90;;;;;;5157709;27;20498;-70
2022/11/25 08:18:27;;;;;;;9.95;3.17;;;8.30;99.90;;;;;;5105878;27;20047;-70
2022/11/25 08:20:59;;;;;;;7.85;2.78;;;8.10;99.90;;;;;;5139642;27;20053;-70
2022/11/25 08:23:25;;;;;;;10.43;2.38;;;8.10;99.90;;;;;;5158388;27;20050;-70
2022/11/25 08:25:51;;;;;;;7.32;2.53;;;8.40;99.90;;;;;;5157623;27;20550;-70
2022/11/25 08:28:16;;;;;;;5.35;2.20;;;8.60;99.90;;;;;;5139408;27;20527;-70
2022/11/25 08:30:43;;;;;;;8.25;2.65;;;8.70;99.90;;;;;;5122016;27;20051;-70
2022/11/25 08:33:09;;;;;;;7.68;3.38;;;8.40;99.90;;;;;;5122435;27;20043;-70
2022/11/25 08:35:37;;;;;;;10.80;3.25;;;8.30;99.90;;;;;;5122592;27;20119;-70
2022/11/25 08:38:10;;;;;;;8.40;2.80;;;8.30;99.90;;;;;;5105259;27;20056;-70
2022/11/25 08:40:36;;;;;;;7.90;2.25;;;8.20;99.90;;;;;;5139207;27;20042;-69
2022/11/25 08:43:02;;;;;;;8.82;2.13;;;8.30;99.90;;;;;;5105836;27;20386;-69
2022/11/25 08:45:28;;;;;;;6.28;2.20;;;8.40;99.90;;;;;;5157922;27;20053;-70
2022/11/25 08:47:55;;;;;;;9.07;2.38;;;8.90;99.90;;;;;;5139207;27;20052;-70
2022/11/25 08:50:23;;;;;;;8.10;2.80;;;8.80;99.90;;;;;;5157543;27;20398;-71
2022/11/25 08:52:49;;;;;;;7.15;2.40;;;8.50;99.90;;;;;;5139485;27;20375;-70
2022/11/25 08:55:15;;;;;;;10.52;3.67;;;8.20;99.90;;;;;;5138702;27;20058;-69
2022/11/25 08:57:41;;;;;;;7.70;2.50;;;8.40;99.90;;;;;;5139465;27;20054;-70
2022/11/25 09:00:07;;;;;;;9.43;2.75;;;8.50;99.90;;;;;;5138313;27;20043;-71
2022/11/25 09:02:33;;;;;;;11.75;3.03;;;8.40;99.90;;;;;;5122050;27;20046;-70
2022/11/25 09:04:59;;;;;;;8.48;2.40;;;8.30;99.90;;;;;;5122168;27;20507;-71
2022/11/25 09:07:25;;;;;;;6.53;2.17;;;8.40;99.90;;;;;;5117278;27;20092;-70
2022/11/25 09:09:51;;;;;;;8.38;2.60;;;8.40;99.90;;;;;;5106698;27;20088;-70
2022/11/25 09:12:18;;;;;;;7.40;2.95;;;8.30;99.90;;;;;;5147486;27;20042;-71
2022/11/25 09:14:43;;;;;;;7.18;2.08;;;8.20;99.90;;;;;;5109191;27;20035;-70
2022/11/25 09:17:11;;;;;;;6.75;2.70;;;8.40;99.90;;;;;;5128222;27;20045;-70
2022/11/25 09:19:37;;;;;;;6.97;2.85;;;8.40;99.90;;;;;;5112181;27;20100;-71
2022/11/25 09:22:03;;;;;;;7.47;2.85;;;8.30;99.90;;;;;;5127551;27;20471;-70
2022/11/25 09:24:28;;;;;;;7.15;2.30;;;8.60;99.90;;;;;;5127928;27;20067;-70
2022/11/25 09:26:54;;;;;;;5.55;2.80;;;8.50;99.90;;;;;;5094351;27;20509;-70
2022/11/25 09:29:20;;;;;;;8.73;2.92;;;8.90;99.90;;;;;;5126655;27;20039;-71
2022/11/25 09:31:46;;;;;;;8.48;3.08;;;8.60;99.90;;;;;;5128260;27;20439;-70
2022/11/25 09:34:11;;;;;;;9.90;3.50;;;8.50;99.90;;;;;;5128203;27;20048;-71
2022/11/25 09:36:37;;;;;;;5.93;2.45;;;8.70;99.90;;;;;;5126519;27;20089;-71
2022/11/25 09:39:04;;;;;;;9.68;3.63;;;8.60;99.90;;;;;;5094088;27;20043;-70
2022/11/25 09:48:14;;;;;;;8.32;3.20;;;8.60;99.90;;;;;;5127547;27;20406;-70
2022/11/25 09:50:55;;;;;;;7.93;3.20;;;8.50;99.90;;;;;;5125974;27;20047;-69
2022/11/25 09:53:44;;;;;;;10.02;3.65;;;8.60;99.90;;;;;;5109045;27;20043;-69
2022/11/25 09:56:50;;;;;;;9.95;3.53;;;8.70;99.90;;;;;;5145387;27;20047;-69
2022/11/25 09:59:25;;;;;;;9.85;3.03;;;8.70;99.90;;;;;;5071153;28;20466;-69
2022/11/25 10:02:01;;;;;;;7.75;2.92;;;8.90;99.90;;;;;;5135414;27;20121;-68
2022/11/25 10:04:53;;;;;;;9.77;3.30;;;8.50;99.90;;;;;;5146546;27;20042;-70
2022/11/25 10:07:38;;;;;;;9.43;3.78;;;8.90;99.90;;;;;;5143191;27;20066;-70
2022/11/25 10:10:06;;;;;;;11.70;4.53;;;8.70;99.90;;;;;;5127223;27;20043;-70
2022/11/25 10:12:41;;;;;;;7.85;4.00;;;8.80;99.90;;;;;;5110212;27;20225;-69
2022/11/25 10:15:30;;;;;;;9.73;4.35;;;9.00;99.90;;;;;;5127081;27;20039;-70
2022/11/25 10:18:05;;;;;;;14.90;6.13;;;8.80;99.90;;;;;;5127635;27;20035;-71
2022/11/25 10:20:35;;;;;;;9.65;5.18;;;8.80;99.90;;;;;;5110832;27;20046;-70
2022/11/25 10:23:07;;;;;;;9.38;4.95;;;9.00;99.90;;;;;;5130164;27;20031;-70
2022/11/25 10:25:47;;;;;;;11.25;4.85;;;9.10;99.90;;;;;;5128480;27;20039;-70
2022/11/25 10:28:20;;;;;;;10.93;4.03;;;9.60;99.90;;;;;;5128308;27;20115;-70
2022/11/25 10:31:10;;;;;;;11.30;5.88;;;9.00;99.90;;;;;;5126247;27;20050;-70
2022/11/25 10:33:44;;;;;;;10.93;5.47;;;9.00;99.90;;;;;;5153442;27;20042;-69
2022/11/25 10:36:25;;;;;;;10.13;6.32;;;9.10;99.90;;;;;;5124412;27;20082;-70
2022/11/25 10:38:54;;;;;;;13.43;7.72;;;9.00;99.90;;;;;;5146708;27;20506;-69
2022/11/25 10:41:23;;;;;;;12.07;6.75;;;9.40;99.90;;;;;;5143569;27;20046;-70
2022/11/25 10:43:55;;;;;;;11.73;7.50;;;9.10;99.90;;;;;;5111207;27;20489;-70
2022/11/25 10:46:51;;;;;;;12.07;6.57;;;9.10;99.90;;;;;;5143741;27;20035;-70
2022/11/25 10:49:34;;;;;;;12.70;6.93;;;9.20;99.90;;;;;;5135945;27;20054;-69
2022/11/25 10:52:00;;;;;;;13.77;7.80;;;9.20;99.90;;;;;;5121368;27;20039;-70
2022/11/25 10:54:27;;;;;;;9.50;6.63;;;9.10;99.90;;;;;;5124406;27;20104;-70
2022/11/25 10:56:57;;;;;;;14.60;6.43;;;9.40;99.90;;;;;;5145930;27;20047;-70
2022/11/25 10:59:25;;;;;;;13.57;6.85;;;9.30;99.90;;;;;;5145193;27;20042;-70
2022/11/25 11:01:53;;;;;;;9.80;5.03;;;9.60;99.90;;;;;;5144456;27;20047;-70
2022/11/25 11:04:19;;;;;;;8.30;4.80;;;9.80;99.90;;;;;;5138792;27;20039;-70
2022/11/25 11:06:48;;;;;;;11.02;5.32;;;9.90;99.90;;;;;;5125505;27;20045;-70
2022/11/25 11:09:34;;;;;;;7.45;3.55;;;9.40;99.90;;;;;;5125335;27;20192;-70
2022/11/25 11:12:12;;;;;;;7.63;2.78;;;9.40;99.90;;;;;;5126623;27;20070;-70
2022/11/25 11:14:38;;;;;;;3.83;2.05;;;9.40;99.90;;;;;;5109196;27;20047;-70
2022/11/25 11:17:03;;;;;;;6.63;2.65;;;9.60;99.90;;;;;;5126438;27;20046;-71
2022/11/25 11:19:30;;;;;;;8.80;2.58;;;9.60;99.90;;;;;;5127237;27;20159;-69
2022/11/25 11:22:14;;;;;;;8.07;2.00;;;9.50;99.90;;;;;;5109689;27;20031;-69
2022/11/25 11:24:41;;;;;;;7.60;2.55;;;9.70;99.90;;;;;;5135433;27;20051;-69
2022/11/25 11:27:23;;;;;;;6.60;2.03;;;9.60;99.90;;;;;;5074582;27;20073;-69
2022/11/25 11:30:24;;;;;;;7.78;2.67;;;9.80;99.90;;;;;;5128836;27;20122;-69
2022/11/25 11:33:00;;;;;;;7.57;2.17;;;9.50;99.90;;;;;;5075097;27;20082;-69
2022/11/25 11:35:56;;;;;;;6.65;2.80;;;9.70;99.90;;;;;;5126575;27;20065;-69
2022/11/25 11:38:33;;;;;;;7.53;1.90;;;9.90;99.90;;;;;;5110380;27;20058;-69
2022/11/25 11:41:12;;;;;;;4.53;1.60;;;9.70;99.90;;;;;;5114359;27;20134;-69
2022/11/25 11:44:28;;;;;;;6.05;1.63;;;9.90;99.90;;;;;;5149565;27;20436;-69
2022/11/25 11:47:18;;;;;;;4.85;2.00;;;9.90;99.90;;;;;;5130201;27;20043;-69
2022/11/25 11:50:12;;;;;;;6.85;1.92;;;10.20;99.90;;;;;;5113717;27;20042;-69
2022/11/25 11:53:10;;;;;;;6.13;1.73;;;10.10;99.90;;;;;;5146339;27;20058;-70
2022/11/25 11:55:57;;;;;;;8.82;1.85;;;10.20;99.90;;;;;;5149465;27;20383;-69
2022/11/25 11:58:35;;;;;;;7.95;1.88;;;10.40;99.90;;;;;;5128768;27;20050;-69
2022/11/25 12:01:21;;;;;;;7.28;1.60;;;10.10;99.90;;;;;;5113663;27;20085;-69
2022/11/25 12:04:10;;;;;;;7.45;1.80;;;10.20;99.90;;;;;;5147186;27;20039;-69
2022/11/25 12:06:37;;;;;;;7.20;1.60;;;10.20;99.90;;;;;;5095301;27;20513;-69
2022/11/25 12:09:11;;;;;;;9.48;1.67;;;10.30;99.90;;;;;;5124024;27;20051;-69
2022/11/25 12:11:45;;;;;;;3.85;1.33;;;10.10;99.90;;;;;;5110495;27;20090;-70
2022/11/25 12:14:34;;;;;;;5.43;1.27;;;10.20;99.90;;;;;;5108382;27;20078;-69
2022/11/25 12:17:04;;;;;;;5.70;1.27;;;10.30;99.90;;;;;;5126375;27;20453;-70
2022/11/25 12:19:59;;;;;;;6.40;1.85;;;10.30;99.90;;;;;;5126546;27;20074;-70
2022/11/25 12:22:36;;;;;;;6.68;1.45;;;10.30;99.90;;;;;;5060229;27;20065;-69
2022/11/25 12:25:21;;;;;;;13.90;2.22;;;10.20;99.90;;;;;;5109078;27;20305;-69
2022/11/25 12:27:56;;;;;;;7.28;1.38;;;10.30;99.90;;;;;;5124703;27;20035;-69
2022/11/25 12:30:23;;;;;;;6.47;1.40;;;10.20;99.90;;;;;;5125813;27;20051;-70
2022/11/25 12:33:30;;;;;;;3.90;1.20;;;10.40;99.90;;;;;;5143274;27;20050;-69
2022/11/25 12:36:12;;;;;;;8.80;2.40;;;10.20;99.90;;;;;;5092059;27;20059;-70
2022/11/25 12:38:55;;;;;;;6.32;1.17;;;10.20;99.90;;;;;;5122732;27;20047;-69
2022/11/25 12:41:40;;;;;;;9.18;1.52;;;10.30;99.90;;;;;;5126204;27;20073;-69
2022/11/25 12:44:17;;;;;;;5.72;1.50;;;10.20;99.90;;;;;;5141803;27;20035;-69
2022/11/25 12:46:55;;;;;;;10.65;1.50;;;10.60;99.90;;;;;;5126930;27;20326;-69
2022/11/25 12:49:27;;;;;;;9.23;1.60;;;10.30;99.90;;;;;;5125898;27;20051;-69
2022/11/25 12:52:31;;;;;;;10.48;1.77;;;10.20;99.90;;;;;;5142856;27;20098;-70
2022/11/25 12:55:17;;;;;;;7.93;1.73;;;10.30;99.90;;;;;;5121752;27;20451;-71
2022/11/25 12:58:15;;;;;;;8.15;1.17;;;10.30;99.90;;;;;;5122765;27;20130;-69
2022/11/25 13:01:11;;;;;;;5.75;1.00;;;10.30;99.90;;;;;;5122405;27;20050;-69
2022/11/25 13:04:08;;;;;;;5.95;1.02;;;10.30;99.90;;;;;;5119603;27;20047;-70
2022/11/25 13:06:53;;;;;;;6.93;1.13;;;10.30;99.90;;;;;;5104289;27;20076;-69
2022/11/25 13:09:57;;;;;;;6.10;0.98;;;10.40;99.90;;;;;;5130146;27;20111;-69
2022/11/25 13:12:50;;;;;;;6.03;1.13;;;10.50;99.90;;;;;;5119806;27;20053;-69
2022/11/25 13:15:15;;;;;;;4.40;0.90;;;10.40;99.90;;;;;;5123084;27;20121;-70
2022/11/25 13:17:44;;;;;;;8.90;1.27;;;10.40;99.90;;;;;;5122948;27;20126;-69